Time;durP1;ratioP1;P1;durP2;ratioP2;P2;SDS_P1;SDS_P2;PMS_P1;PMS_P2;Temp;Humidity;BMP_temperature;BMP_pressure;BME280_temperature;BME280_humidity;BME280_pressure;Samples;Min_cycle;Max_cycle;Signal;HPM_P1;HPM_P2
2022/07/01 00:02:15;;;;;;;0.40;0.20;;;;;;;18.07;100.00;100165.75;5032687;28;20448;-50
2022/07/01 00:04:44;;;;;;;0.40;0.20;;;;;;;18.21;100.00;100171.16;5032809;28;20467;-50
2022/07/01 00:07:11;;;;;;;0.40;0.20;;;;;;;18.05;100.00;100190.06;5032819;28;20519;-49
2022/07/01 00:09:38;;;;;;;0.50;0.50;;;;;;;18.16;100.00;100215.47;5032614;28;20456;-50
2022/07/01 00:12:06;;;;;;;0.40;0.20;;;;;;;18.33;100.00;100213.44;5032722;28;20459;-50
2022/07/01 00:14:33;;;;;;;0.40;0.20;;;;;;;18.69;99.82;100235.53;5019443;28;20575;-50
2022/07/01 00:17:00;;;;;;;0.40;0.20;;;;;;;18.50;99.80;100233.97;5032844;28;20452;-50
2022/07/01 00:19:26;;;;;;;0.40;0.20;;;;;;;18.27;100.00;100226.44;5032690;28;20538;-50
2022/07/01 00:21:53;;;;;;;0.40;0.20;;;;;;;18.44;100.00;100212.78;5032817;28;20447;-50
2022/07/01 00:24:20;;;;;;;0.40;0.20;;;;;;;18.55;100.00;100213.00;5020039;28;20473;-50
2022/07/01 00:26:47;;;;;;;0.40;0.20;;;;;;;18.46;100.00;100216.25;5032340;28;20514;-50
2022/07/01 00:29:13;;;;;;;0.40;0.20;;;;;;;18.54;100.00;100208.56;5032594;28;20452;-50
2022/07/01 00:31:39;;;;;;;0.40;0.20;;;;;;;18.46;100.00;100221.63;5032631;28;20478;-50
2022/07/01 00:34:06;;;;;;;0.40;0.20;;;;;;;18.23;100.00;100212.31;5032380;28;20467;-50
2022/07/01 00:36:32;;;;;;;0.40;0.20;;;;;;;18.76;100.00;100209.94;5032504;28;20472;-50
2022/07/01 00:38:59;;;;;;;0.40;0.20;;;;;;;18.40;100.00;100224.72;5032233;28;20470;-50
2022/07/01 00:41:25;;;;;;;0.40;0.20;;;;;;;18.46;100.00;100224.31;5032580;28;20458;-50
2022/07/01 00:43:53;;;;;;;0.40;0.20;;;;;;;18.17;100.00;100233.34;5032319;28;20467;-49
2022/07/01 00:46:23;;;;;;;0.40;0.20;;;;;;;18.18;100.00;100221.59;5027611;28;20503;-50
2022/07/01 00:48:52;;;;;;;0.40;0.20;;;;;;;18.20;100.00;100227.75;5027075;28;20884;-49
2022/07/01 00:51:19;;;;;;;0.40;0.20;;;;;;;18.37;100.00;100208.78;5032354;28;20538;-49
2022/07/01 00:53:47;;;;;;;0.40;0.20;;;;;;;18.20;100.00;100200.84;5024889;28;21055;-50
2022/07/01 00:56:14;;;;;;;0.40;0.20;;;;;;;18.18;100.00;100213.53;5032360;28;20447;-50
2022/07/01 00:58:41;;;;;;;0.40;0.20;;;;;;;18.21;100.00;100206.13;5032134;28;20571;-50
2022/07/01 01:01:07;;;;;;;0.40;0.20;;;;;;;18.15;100.00;100216.41;5032307;28;20456;-49
2022/07/01 01:03:34;;;;;;;0.40;0.20;;;;;;;18.39;100.00;100220.31;5031899;28;20472;-50
2022/07/01 01:06:02;;;;;;;0.40;0.20;;;;;;;18.11;100.00;100229.22;5032201;28;20502;-50
2022/07/01 01:08:29;;;;;;;0.40;0.20;;;;;;;18.59;100.00;100240.59;5031756;28;20505;-50
2022/07/01 01:10:55;;;;;;;0.40;0.20;;;;;;;18.37;100.00;100257.22;5032003;28;20458;-50
2022/07/01 01:13:22;;;;;;;0.40;0.20;;;;;;;18.35;100.00;100256.41;5031971;28;20476;-50
2022/07/01 01:15:49;;;;;;;0.40;0.20;;;;;;;18.01;100.00;100274.63;5032142;28;21109;-49
2022/07/01 01:18:15;;;;;;;0.40;0.20;;;;;;;18.06;100.00;100275.19;5031716;28;20929;-50
2022/07/01 01:20:42;;;;;;;0.40;0.20;;;;;;;18.34;100.00;100285.16;5047094;28;20466;-52
2022/07/01 01:23:08;;;;;;;0.40;0.20;;;;;;;18.12;100.00;100276.66;5027430;28;20469;-49
2022/07/01 01:25:35;;;;;;;0.40;0.20;;;;;;;18.06;100.00;100268.94;5023649;28;20451;-50
2022/07/01 01:28:03;;;;;;;0.40;0.20;;;;;;;18.21;100.00;100246.50;5031853;28;20494;-50
2022/07/01 01:30:29;;;;;;;0.40;0.20;;;;;;;17.93;100.00;100254.50;5031917;28;20530;-50
2022/07/01 01:32:56;;;;;;;0.40;0.20;;;;;;;18.45;100.00;100265.66;5032159;28;21036;-53
2022/07/01 01:35:23;;;;;;;0.40;0.20;;;;;;;18.20;100.00;100273.50;5031704;28;20456;-53
2022/07/01 01:37:49;;;;;;;0.40;0.20;;;;;;;18.45;100.00;100272.88;5031846;28;20471;-52
2022/07/01 01:40:16;;;;;;;0.40;0.20;;;;;;;18.58;100.00;100265.78;5031834;28;20443;-53
2022/07/01 01:42:43;;;;;;;0.40;0.30;;;;;;;18.33;100.00;100269.97;5031691;28;20605;-51
2022/07/01 01:45:11;;;;;;;0.40;0.20;;;;;;;18.21;100.00;100269.84;5031811;28;20510;-52
2022/07/01 01:47:37;;;;;;;0.40;0.20;;;;;;;18.22;100.00;100268.88;5013604;28;21019;-53
2022/07/01 01:50:05;;;;;;;0.40;0.20;;;;;;;18.33;100.00;100269.97;5031699;28;20458;-53
2022/07/01 01:52:32;;;;;;;0.40;0.20;;;;;;;18.20;100.00;100270.81;5031958;28;20462;-52
2022/07/01 01:54:59;;;;;;;0.40;0.20;;;;;;;18.30;100.00;100274.69;5025747;28;20467;-52
2022/07/01 01:57:26;;;;;;;0.40;0.20;;;;;;;18.12;100.00;100273.13;5031806;28;20447;-53
2022/07/01 01:59:52;;;;;;;0.40;0.20;;;;;;;18.18;100.00;100276.28;5031736;28;20550;-52
2022/07/01 02:02:19;;;;;;;0.40;0.20;;;;;;;18.35;100.00;100280.63;5031710;28;20447;-52
2022/07/01 02:04:45;;;;;;;0.40;0.20;;;;;;;18.52;100.00;100282.31;5034192;28;20467;-53
2022/07/01 02:07:15;;;;;;;0.40;0.20;;;;;;;18.45;100.00;100272.88;5035459;28;20497;-52
2022/07/01 02:09:41;;;;;;;0.40;0.20;;;;;;;18.37;100.00;100276.06;5035157;28;20459;-52
2022/07/01 02:12:08;;;;;;;0.40;0.20;;;;;;;18.15;100.00;100278.31;5035253;28;20451;-52
2022/07/01 02:14:34;;;;;;;0.40;0.20;;;;;;;18.12;100.00;100276.66;5034959;28;20474;-54
2022/07/01 02:17:01;;;;;;;0.40;0.20;;;;;;;17.91;100.00;100280.63;5034950;28;20456;-52
2022/07/01 02:19:28;;;;;;;0.40;0.20;;;;;;;18.35;100.00;100291.41;5034826;28;20456;-52
2022/07/01 02:21:54;;;;;;;0.40;0.20;;;;;;;18.45;100.00;100295.28;5035018;28;20527;-53
2022/07/01 02:24:21;;;;;;;0.40;0.20;;;;;;;18.22;100.00;100293.97;5022231;28;20474;-52
2022/07/01 02:26:47;;;;;;;0.40;0.20;;;;;;;18.37;100.00;100296.72;5034845;28;20456;-53
2022/07/01 02:29:14;;;;;;;0.40;0.20;;;;;;;18.16;100.00;100288.09;5021582;28;20452;-52
2022/07/01 02:31:41;;;;;;;0.40;0.20;;;;;;;18.00;99.73;100285.47;5034668;28;20443;-52
2022/07/01 02:34:07;;;;;;;0.40;0.20;;;;;;;17.86;100.00;100283.59;5034627;28;20511;-53
2022/07/01 02:36:34;;;;;;;0.40;0.20;;;;;;;17.82;99.77;100282.06;5034581;28;20459;-52
2022/07/01 02:39:00;;;;;;;0.40;0.20;;;;;;;17.85;100.00;100281.88;5034504;28;20452;-53
2022/07/01 02:41:27;;;;;;;0.40;0.20;;;;;;;17.82;100.00;100273.97;5034589;28;20820;-52
2022/07/01 02:43:53;;;;;;;0.40;0.20;;;;;;;18.11;100.00;100279.47;5034437;28;20563;-51
2022/07/01 02:46:20;;;;;;;0.40;0.20;;;;;;;17.67;99.86;100282.88;5029827;28;20964;-52
2022/07/01 02:48:46;;;;;;;0.40;0.20;;;;;;;17.92;99.64;100276.97;5030762;28;20880;-53
2022/07/01 02:51:13;;;;;;;0.40;0.20;;;;;;;17.79;99.82;100278.66;5034677;28;20456;-53
2022/07/01 02:53:40;;;;;;;0.40;0.20;;;;;;;17.98;99.43;100276.63;5028910;28;20475;-53
2022/07/01 02:56:06;;;;;;;0.40;0.20;;;;;;;17.63;100.00;100282.19;5034333;28;20448;-53
2022/07/01 02:58:33;;;;;;;0.40;0.20;;;;;;;17.98;99.77;100277.50;5034060;28;20444;-52
2022/07/01 03:00:59;;;;;;;0.40;0.20;;;;;;;17.75;100.00;100267.22;5034092;28;20447;-53
2022/07/01 03:03:26;;;;;;;0.40;0.20;;;;;;;17.73;99.74;100271.81;5034115;28;20478;-52
2022/07/01 03:05:52;;;;;;;0.40;0.20;;;;;;;17.63;98.74;100259.81;5034179;28;20455;-53
2022/07/01 03:08:19;;;;;;;0.40;0.20;;;;;;;17.65;99.08;100257.91;5033913;28;20488;-52
2022/07/01 03:10:45;;;;;;;0.40;0.20;;;;;;;17.83;98.64;100247.97;5034110;28;20450;-52
2022/07/01 03:13:12;;;;;;;0.40;0.20;;;;;;;17.52;99.17;100247.00;5020278;28;20822;-52
2022/07/01 03:15:38;;;;;;;0.40;0.20;;;;;;;17.52;99.97;100249.69;5033415;28;20459;-53
2022/07/01 03:18:05;;;;;;;0.40;0.20;;;;;;;17.57;99.30;100244.06;5033767;28;20452;-52
2022/07/01 03:20:31;;;;;;;0.40;0.20;;;;;;;17.49;100.00;100239.13;5033714;28;20458;-52
2022/07/01 03:22:58;;;;;;;0.40;0.20;;;;;;;17.32;100.00;100237.41;5030877;28;20457;-53
2022/07/01 03:25:24;;;;;;;0.40;0.20;;;;;;;17.59;99.31;100236.78;5024402;28;20452;-53
2022/07/01 03:27:51;;;;;;;0.40;0.20;;;;;;;17.33;100.00;100243.66;5033451;28;20492;-52
2022/07/01 03:30:18;;;;;;;0.40;0.20;;;;;;;17.56;100.00;100250.41;5033923;28;20455;-53
2022/07/01 03:32:44;;;;;;;0.40;0.20;;;;;;;17.59;100.00;100253.78;5033511;28;20451;-53
2022/07/01 03:37:56;;;;;;;0.40;0.20;;;;;;;17.47;99.48;100241.91;5033620;28;20444;-53
2022/07/01 03:40:23;;;;;;;0.40;0.20;;;;;;;17.33;99.44;100257.97;5033337;28;20444;-53
2022/07/01 03:42:50;;;;;;;0.40;0.20;;;;;;;17.45;99.04;100262.63;5033348;28;20994;-52
2022/07/01 03:45:17;;;;;;;0.40;0.20;;;;;;;17.32;100.00;100264.28;5033391;28;20454;-52
2022/07/01 03:47:50;;;;;;;0.40;0.20;;;;;;;17.43;99.49;100272.59;5024208;28;20507;-53
2022/07/01 03:50:20;;;;;;;0.40;0.20;;;;;;;17.57;99.05;100279.00;5033196;28;20447;-54
2022/07/01 03:52:46;;;;;;;0.40;0.20;;;;;;;17.92;96.65;100285.91;5031825;28;20454;-53
2022/07/01 03:55:16;;;;;;;0.40;0.20;;;;;;;17.59;98.14;100282.47;5028486;28;20448;-53
2022/07/01 03:57:42;;;;;;;0.40;0.20;;;;;;;17.71;96.78;100279.97;5033258;28;20455;-53
2022/07/01 04:00:09;;;;;;;0.40;0.20;;;;;;;17.65;96.56;100291.03;5033140;28;20451;-53
2022/07/01 04:02:36;;;;;;;0.40;0.20;;;;;;;17.63;96.70;100276.81;5033091;28;20457;-53
2022/07/01 04:05:03;;;;;;;0.40;0.20;;;;;;;17.61;97.58;100261.75;5032882;28;20836;-53
2022/07/01 04:07:29;;;;;;;0.40;0.20;;;;;;;17.46;97.34;100268.88;5032842;28;20491;-52
2022/07/01 04:09:56;;;;;;;0.40;0.20;;;;;;;17.39;98.06;100260.28;5032711;28;20451;-52
2022/07/01 04:12:22;;;;;;;0.40;0.20;;;;;;;17.39;98.44;100264.78;5033072;28;20447;-51
2022/07/01 04:14:49;;;;;;;0.40;0.20;;;;;;;17.48;98.00;100258.91;5032782;28;20828;-50
2022/07/01 04:17:15;;;;;;;0.40;0.20;;;;;;;17.30;98.57;100260.81;5034458;28;20444;-50
2022/07/01 04:19:42;;;;;;;0.40;0.20;;;;;;;17.35;98.05;100250.66;5033281;28;20466;-50
2022/07/01 04:25:10;;;;;;;0.40;0.20;;;;;;;17.95;95.32;100272.28;4991003;28;21012;-51
2022/07/01 04:27:36;;;;;;;0.40;0.20;;;;;;;17.62;96.61;100284.97;5022515;28;20486;-50
2022/07/01 04:30:03;;;;;;;0.50;0.40;;;;;;;17.74;95.45;100282.47;5032503;28;20456;-50
2022/07/01 04:32:30;;;;;;;0.40;0.20;;;;;;;17.89;95.04;100280.72;5032213;28;20458;-51
2022/07/01 04:34:57;;;;;;;0.40;0.20;;;;;;;17.48;95.75;100291.16;5032588;28;20475;-50
2022/07/01 04:37:23;;;;;;;0.40;0.20;;;;;;;17.73;95.24;100301.41;5032424;28;20531;-51
2022/07/01 04:39:50;;;;;;;0.40;0.20;;;;;;;18.18;93.62;100305.88;5032477;28;20451;-50
2022/07/01 04:42:17;;;;;;;0.40;0.20;;;;;;;18.02;93.39;100314.00;5032292;28;20458;-50
2022/07/01 04:44:44;;;;;;;0.40;0.20;;;;;;;17.82;94.17;100322.38;5032323;28;20471;-51
2022/07/01 04:47:11;;;;;;;0.40;0.20;;;;;;;17.76;94.95;100326.28;5023277;28;20467;-50
2022/07/01 04:49:37;;;;;;;0.40;0.20;;;;;;;17.87;93.51;100338.25;5032492;28;20543;-51
2022/07/01 04:52:04;;;;;;;0.40;0.20;;;;;;;17.90;93.75;100336.25;5032393;28;20455;-50
2022/07/01 04:54:30;;;;;;;0.40;0.20;;;;;;;17.94;93.22;100334.22;5026367;28;20480;-50
2022/07/01 04:56:57;;;;;;;0.40;0.20;;;;;;;18.03;92.67;100333.69;5047478;28;20458;-50
2022/07/01 04:59:23;;;;;;;0.40;0.20;;;;;;;17.94;92.92;100337.78;5032231;28;20444;-51
2022/07/01 05:01:50;;;;;;;0.40;0.20;;;;;;;18.03;92.80;100331.88;5032015;28;20959;-51
2022/07/01 05:04:18;;;;;;;0.40;0.20;;;;;;;17.77;93.35;100343.28;5032234;28;20558;-51
2022/07/01 05:06:45;;;;;;;0.40;0.20;;;;;;;17.74;92.98;100341.63;5032171;28;20464;-51
2022/07/01 05:09:12;;;;;;;0.40;0.20;;;;;;;17.66;92.81;100345.66;5032081;28;20498;-50
2022/07/01 05:11:39;;;;;;;0.40;0.20;;;;;;;17.74;93.45;100341.63;5032064;28;20448;-50
2022/07/01 05:14:07;;;;;;;0.40;0.20;;;;;;;17.87;92.87;100349.00;5031905;28;20499;-51
2022/07/01 05:16:34;;;;;;;0.40;0.20;;;;;;;17.79;93.17;100345.88;5032132;28;20455;-50
2022/07/01 05:21:57;;;;;;;0.40;0.20;;;;;;;17.83;94.78;100355.53;5032152;28;20847;-49
2022/07/01 05:24:27;;;;;;;0.40;0.20;;;;;;;18.05;93.10;100356.84;5019495;28;21016;-51
2022/07/01 05:26:54;;;;;;;0.40;0.20;;;;;;;17.98;92.62;100355.50;5031956;28;20447;-52
2022/07/01 05:29:20;;;;;;;0.40;0.30;;;;;;;17.89;91.89;100364.09;5031961;28;20889;-52
2022/07/01 05:31:47;;;;;;;0.40;0.20;;;;;;;18.30;90.33;100369.75;5032138;28;20455;-51
2022/07/01 05:34:13;;;;;;;0.40;0.20;;;;;;;18.62;88.98;100373.19;5031881;28;20525;-52
2022/07/01 05:36:40;;;;;;;0.40;0.20;;;;;;;18.11;90.95;100373.63;5031944;28;20455;-49
2022/07/01 05:39:06;;;;;;;0.40;0.20;;;;;;;18.04;92.74;100362.34;5032961;28;20455;-50
2022/07/01 05:41:34;;;;;;;0.40;0.20;;;;;;;18.25;91.11;100358.41;5035892;28;20449;-49
2022/07/01 05:44:01;;;;;;;0.40;0.20;;;;;;;18.92;87.27;100343.56;5035449;28;20474;-48
2022/07/01 05:46:27;;;;;;;0.40;0.20;;;;;;;19.13;85.60;100327.88;5029951;28;20488;-50
2022/07/01 05:48:54;;;;;;;0.40;0.20;;;;;;;18.64;85.67;100322.88;5032121;28;20487;-49
2022/07/01 05:51:20;;;;;;;0.40;0.20;;;;;;;18.71;86.53;100338.63;5035550;28;20448;-50
2022/07/01 05:53:47;;;;;;;0.40;0.20;;;;;;;18.83;86.07;100332.50;5028967;28;20471;-49
2022/07/01 05:56:15;;;;;;;0.40;0.20;;;;;;;18.90;85.83;100340.06;5035323;28;20816;-49
2022/07/01 05:58:41;;;;;;;0.40;0.20;;;;;;;18.92;85.02;100338.19;5035286;28;20454;-50
2022/07/01 06:01:08;;;;;;;0.40;0.20;;;;;;;18.83;84.78;100348.66;5035495;28;20450;-49
2022/07/01 06:03:35;;;;;;;0.40;0.20;;;;;;;18.84;85.87;100359.31;5035151;28;20479;-49
2022/07/01 06:06:02;;;;;;;0.40;0.20;;;;;;;18.80;85.98;100373.94;5035214;28;20461;-49
2022/07/01 06:08:29;;;;;;;0.40;0.20;;;;;;;18.75;85.36;100381.44;5034903;28;21000;-50
2022/07/01 06:10:55;;;;;;;0.40;0.20;;;;;;;18.85;86.18;100388.00;5035260;28;20458;-50
2022/07/01 06:13:22;;;;;;;0.40;0.20;;;;;;;18.85;85.56;100376.34;5034973;28;20471;-50
2022/07/01 06:15:48;;;;;;;0.40;0.20;;;;;;;19.02;85.77;100381.56;5035153;28;20455;-52
2022/07/01 06:18:15;;;;;;;0.40;0.20;;;;;;;18.83;84.63;100384.53;5034818;28;20452;-50
2022/07/01 06:20:41;;;;;;;0.40;0.20;;;;;;;18.56;86.53;100397.81;5034811;28;20948;-50
2022/07/01 06:23:08;;;;;;;0.40;0.20;;;;;;;18.82;85.80;100396.28;5030428;28;21009;-49
2022/07/01 06:25:34;;;;;;;0.40;0.20;;;;;;;18.60;86.20;100380.50;5026876;28;20825;-50
2022/07/01 06:28:01;;;;;;;0.40;0.20;;;;;;;18.79;84.92;100368.66;5034810;28;20488;-50
2022/07/01 06:30:28;;;;;;;0.40;0.20;;;;;;;18.72;85.33;100362.75;5033637;28;20451;-50
2022/07/01 06:32:54;;;;;;;0.40;0.20;;;;;;;18.91;85.54;100366.09;5034766;28;20447;-50
2022/07/01 06:35:21;;;;;;;0.40;0.20;;;;;;;18.83;84.14;100371.06;5034628;28;20456;-51
2022/07/01 06:37:47;;;;;;;0.40;0.20;;;;;;;18.90;86.39;100399.34;5033328;28;20541;-51
2022/07/01 06:40:21;;;;;;;0.40;0.20;;;;;;;19.01;84.43;100405.91;5034519;28;20443;-50
2022/07/01 06:42:47;;;;;;;0.40;0.20;;;;;;;18.84;85.96;100407.81;5007881;28;20544;-51
2022/07/01 06:45:13;;;;;;;0.40;0.20;;;;;;;19.01;85.04;100408.59;5034576;28;20453;-51
2022/07/01 06:47:40;;;;;;;0.40;0.20;;;;;;;18.70;85.53;100398.84;5025063;28;20859;-50
2022/07/01 06:50:07;;;;;;;0.40;0.20;;;;;;;19.20;84.35;100393.91;5033335;28;20946;-50
2022/07/01 06:52:34;;;;;;;0.40;0.20;;;;;;;19.05;84.75;100405.66;5034431;28;20462;-50
2022/07/01 06:55:00;;;;;;;0.40;0.20;;;;;;;18.71;85.61;100422.09;5027921;28;21026;-50
2022/07/01 06:57:27;;;;;;;0.40;0.20;;;;;;;18.84;85.61;100406.94;5008434;28;20455;-50
2022/07/01 06:59:54;;;;;;;0.40;0.20;;;;;;;19.19;84.60;100419.13;5034198;28;20450;-50
2022/07/01 07:02:20;;;;;;;0.40;0.20;;;;;;;19.09;84.38;100431.44;5034107;28;20825;-50
2022/07/01 07:04:57;;;;;;;0.40;0.20;;;;;;;19.36;83.55;100438.78;5034057;28;20494;-50
2022/07/01 07:07:26;;;;;;;0.40;0.20;;;;;;;18.82;83.81;100443.88;5034115;28;21079;-50
2022/07/01 07:09:53;;;;;;;0.40;0.20;;;;;;;18.69;84.27;100446.44;5033948;28;20832;-51
2022/07/01 07:12:20;;;;;;;0.40;0.20;;;;;;;19.00;83.59;100449.97;5034174;28;20530;-50
2022/07/01 07:14:46;;;;;;;0.40;0.20;;;;;;;19.00;83.12;100449.97;5033743;28;20476;-50
2022/07/01 07:17:12;;;;;;;0.40;0.20;;;;;;;18.97;83.40;100458.25;5033649;28;20507;-51
2022/07/01 07:19:39;;;;;;;0.40;0.20;;;;;;;18.97;83.47;100460.94;5033693;28;20554;-51
2022/07/01 07:22:06;;;;;;;0.40;0.20;;;;;;;18.97;83.56;100456.44;5035568;28;20965;-51
2022/07/01 07:24:32;;;;;;;0.40;0.27;;;;;;;18.74;84.29;100447.03;5021056;28;20519;-50
2022/07/01 07:26:59;;;;;;;0.40;0.20;;;;;;;18.82;84.36;100455.53;5033796;28;20447;-50
2022/07/01 07:29:25;;;;;;;0.40;0.20;;;;;;;18.80;83.93;100476.31;5033520;28;20491;-51
2022/07/01 07:31:52;;;;;;;0.40;0.20;;;;;;;18.76;83.53;100463.09;5033790;28;20479;-50
2022/07/01 07:34:18;;;;;;;0.40;0.20;;;;;;;18.74;83.34;100468.56;5034062;28;20474;-50
2022/07/01 07:36:45;;;;;;;0.40;0.20;;;;;;;19.06;82.65;100472.03;5033938;28;20479;-50
2022/07/01 07:39:12;;;;;;;0.40;0.20;;;;;;;19.12;82.17;100474.34;5029548;28;20448;-50
2022/07/01 07:41:39;;;;;;;0.40;0.20;;;;;;;18.89;83.43;100473.03;5024457;28;20455;-50
2022/07/01 07:44:05;;;;;;;0.40;0.20;;;;;;;18.39;83.71;100476.00;5033231;28;20518;-50
2022/07/01 07:46:32;;;;;;;0.40;0.20;;;;;;;18.68;83.21;100481.53;5027367;28;20459;-50
2022/07/01 07:48:58;;;;;;;0.40;0.20;;;;;;;18.66;82.87;100483.47;5030736;28;21000;-50
2022/07/01 07:51:26;;;;;;;0.40;0.20;;;;;;;19.08;81.72;100477.34;5033408;28;20451;-51
2022/07/01 07:53:52;;;;;;;0.40;0.20;;;;;;;18.81;82.78;100466.41;5027279;28;20529;-51
2022/07/01 07:56:20;;;;;;;0.40;0.20;;;;;;;18.56;83.23;100464.25;5033822;28;20455;-50
2022/07/01 07:58:46;;;;;;;0.40;0.20;;;;;;;18.60;83.26;100450.50;5032916;28;20467;-50
2022/07/01 08:01:13;;;;;;;0.40;0.20;;;;;;;18.76;82.32;100446.94;5032800;28;21018;-50
2022/07/01 08:03:39;;;;;;;0.40;0.20;;;;;;;18.96;80.87;100441.22;5032918;28;20467;-50
2022/07/01 08:06:06;;;;;;;0.40;0.20;;;;;;;19.23;81.22;100430.56;5032741;28;20961;-51
2022/07/01 08:08:33;;;;;;;0.40;0.20;;;;;;;19.06;80.51;100441.53;5032832;28;20483;-50
2022/07/01 08:11:00;;;;;;;0.40;0.20;;;;;;;19.32;79.96;100456.94;5032828;28;20456;-51
2022/07/01 08:13:27;;;;;;;0.40;0.20;;;;;;;19.21;79.49;100467.53;5032388;28;20487;-50
2022/07/01 08:15:55;;;;;;;0.40;0.20;;;;;;;19.24;78.74;100457.44;5032773;28;20830;-50
2022/07/01 08:18:21;;;;;;;0.40;0.20;;;;;;;19.28;79.84;100443.75;5032455;28;20956;-51
2022/07/01 08:20:52;;;;;;;0.40;0.20;;;;;;;19.12;81.35;100435.75;5032894;28;20455;-50
2022/07/01 08:23:22;;;;;;;0.40;0.20;;;;;;;19.33;79.18;100425.50;5027082;28;20479;-50
2022/07/01 08:25:49;;;;;;;0.40;0.20;;;;;;;19.42;78.02;100430.28;5026526;28;20448;-50
2022/07/01 08:28:16;;;;;;;0.40;0.20;;;;;;;19.42;78.55;100425.75;5032925;28;20458;-50
2022/07/01 08:30:43;;;;;;;0.40;0.20;;;;;;;19.51;78.13;100421.63;5032554;28;20454;-50
2022/07/01 08:33:10;;;;;;;0.40;0.20;;;;;;;19.30;78.80;100409.47;5032574;28;20476;-50
2022/07/01 08:35:37;;;;;;;0.40;0.20;;;;;;;19.16;78.49;100429.22;5032429;28;21031;-50
2022/07/01 08:38:05;;;;;;;0.40;0.20;;;;;;;19.14;78.99;100436.53;5032625;28;20454;-50
2022/07/01 08:40:32;;;;;;;0.40;0.20;;;;;;;19.55;77.94;100449.28;5032381;28;20444;-50
2022/07/01 08:43:00;;;;;;;0.40;0.20;;;;;;;19.34;78.33;100465.81;5032535;28;20458;-51
2022/07/01 08:45:29;;;;;;;0.40;0.20;;;;;;;19.88;77.24;100473.25;5032784;28;20447;-51
2022/07/01 08:48:00;;;;;;;0.40;0.30;;;;;;;20.00;75.54;100485.94;5024339;28;20455;-50
2022/07/01 08:50:30;;;;;;;0.40;0.20;;;;;;;19.92;75.32;100507.16;5030973;28;20497;-50
2022/07/01 08:52:59;;;;;;;0.40;0.20;;;;;;;20.10;76.07;100498.75;5029148;28;20455;-50
2022/07/01 08:55:27;;;;;;;0.40;0.20;;;;;;;20.39;74.70;100491.44;5029981;28;20455;-50
2022/07/01 08:57:53;;;;;;;0.40;0.20;;;;;;;20.81;74.37;100484.16;5028448;28;20448;-50
2022/07/01 09:00:20;;;;;;;0.40;0.20;;;;;;;20.31;74.10;100474.03;5016749;28;20452;-50
2022/07/01 09:02:55;;;;;;;0.40;0.20;;;;;;;20.33;74.20;100480.19;5032145;28;20579;-51
2022/07/01 09:05:23;;;;;;;0.40;0.20;;;;;;;20.23;73.34;100482.63;5031955;28;20466;-51
2022/07/01 09:07:56;;;;;;;0.40;0.20;;;;;;;20.65;71.94;100484.34;5032278;28;20514;-51
2022/07/01 09:10:24;;;;;;;0.40;0.20;;;;;;;20.50;72.20;100490.75;5031127;28;20487;-50
2022/07/01 09:12:51;;;;;;;0.40;0.20;;;;;;;19.99;72.55;100493.16;5031857;28;20944;-51
2022/07/01 09:15:30;;;;;;;0.40;0.20;;;;;;;20.15;74.83;100497.56;5035752;28;20447;-50
2022/07/01 09:18:04;;;;;;;0.40;0.20;;;;;;;20.35;71.95;100502.56;5036187;28;20466;-51
2022/07/01 09:20:42;;;;;;;0.40;0.20;;;;;;;20.68;71.51;100494.94;5036489;28;20475;-51
2022/07/01 09:23:17;;;;;;;0.40;0.20;;;;;;;20.12;73.90;100498.63;5030518;28;20885;-51
2022/07/01 09:25:51;;;;;;;0.40;0.20;;;;;;;20.24;74.91;100499.69;5029072;28;20486;-51
2022/07/01 09:28:23;;;;;;;0.40;0.20;;;;;;;20.11;74.13;100505.88;5035939;28;20538;-51
2022/07/01 09:30:52;;;;;;;0.40;0.20;;;;;;;20.13;73.40;100500.38;5036006;28;20451;-50
2022/07/01 09:33:21;;;;;;;0.40;0.20;;;;;;;20.74;71.43;100498.22;5035859;28;20467;-50
2022/07/01 09:35:52;;;;;;;0.40;0.20;;;;;;;21.10;70.29;100494.81;5035870;28;20566;-51
2022/07/01 09:38:23;;;;;;;0.40;0.20;;;;;;;21.33;70.10;100494.13;5036007;28;20444;-51
2022/07/01 09:41:03;;;;;;;0.40;0.20;;;;;;;21.91;67.78;100500.78;5035733;28;20912;-50
2022/07/01 09:43:31;;;;;;;0.40;0.20;;;;;;;21.69;66.23;100492.50;5035997;28;20854;-50
2022/07/01 09:45:58;;;;;;;0.40;0.20;;;;;;;21.93;67.66;100490.75;5034231;28;20461;-51
2022/07/01 09:48:41;;;;;;;0.40;0.20;;;;;;;21.24;67.42;100495.63;5029060;28;20482;-51
2022/07/01 09:51:09;;;;;;;0.40;0.20;;;;;;;20.89;67.79;100479.13;5035635;28;20454;-51
2022/07/01 09:53:42;;;;;;;0.40;0.20;;;;;;;20.95;67.89;100478.69;5029191;28;21042;-50
2022/07/01 09:56:09;;;;;;;0.40;0.20;;;;;;;21.02;69.50;100478.28;5035546;28;20543;-51
2022/07/01 09:58:38;;;;;;;0.40;0.20;;;;;;;21.87;67.53;100485.75;5035329;28;20456;-51
2022/07/01 10:01:07;;;;;;;0.40;0.20;;;;;;;21.38;68.25;100482.97;5035422;28;20458;-50
2022/07/01 10:03:37;;;;;;;0.40;0.20;;;;;;;21.46;66.90;100486.88;5035005;28;21007;-51
2022/07/01 10:06:19;;;;;;;0.40;0.20;;;;;;;21.76;66.87;100488.38;5035484;28;20451;-51
2022/07/01 10:09:04;;;;;;;0.40;0.20;;;;;;;21.55;67.64;100491.66;5035222;28;20496;-51
2022/07/01 10:11:35;;;;;;;0.40;0.20;;;;;;;21.48;68.32;100500.28;5034911;28;20455;-52
2022/07/01 10:14:06;;;;;;;0.40;0.20;;;;;;;21.56;69.48;100493.38;5035096;28;20471;-53
2022/07/01 10:16:34;;;;;;;0.40;0.20;;;;;;;21.65;68.67;100491.84;5035265;28;20835;-53
2022/07/01 10:19:19;;;;;;;0.40;0.20;;;;;;;22.07;67.30;100500.59;5034943;28;20463;-53
2022/07/01 10:21:46;;;;;;;0.40;0.20;;;;;;;22.16;66.30;100503.47;5035009;28;20452;-53
2022/07/01 10:24:15;;;;;;;0.40;0.20;;;;;;;22.38;64.49;100504.63;5020941;28;20867;-53
2022/07/01 10:26:42;;;;;;;0.40;0.20;;;;;;;22.85;63.00;100501.06;5034703;28;20458;-53
2022/07/01 10:29:29;;;;;;;0.40;0.20;;;;;;;22.20;64.43;100498.69;5034783;28;20507;-52
2022/07/01 10:32:03;;;;;;;0.40;0.20;;;;;;;22.32;64.60;100505.06;5034951;28;20562;-52
2022/07/01 10:34:38;;;;;;;0.40;0.20;;;;;;;22.22;61.58;100504.91;5034508;28;20992;-53
2022/07/01 10:37:08;;;;;;;0.40;0.20;;;;;;;22.61;60.98;100497.47;5033477;28;20845;-53
2022/07/01 10:40:03;;;;;;;0.40;0.20;;;;;;;22.22;60.68;100504.91;5034731;28;20787;-53
2022/07/01 10:42:31;;;;;;;0.40;0.20;;;;;;;22.52;60.39;100511.72;5033540;28;20542;-53
2022/07/01 10:45:01;;;;;;;0.40;0.20;;;;;;;22.44;60.70;100509.56;5034680;28;20474;-53
2022/07/01 10:47:28;;;;;;;0.40;0.20;;;;;;;22.82;59.49;100501.28;5025476;28;20957;-53
2022/07/01 10:50:03;;;;;;;0.40;0.20;;;;;;;22.95;59.83;100501.22;5034365;28;20960;-52
2022/07/01 10:52:30;;;;;;;0.40;0.20;;;;;;;23.02;56.98;100489.78;5034615;28;20443;-53
2022/07/01 10:54:57;;;;;;;0.40;0.20;;;;;;;23.06;58.27;100490.44;5028660;28;20498;-53
2022/07/01 10:57:47;;;;;;;0.40;0.20;;;;;;;22.57;59.56;100490.56;5034419;28;20454;-52
2022/07/01 11:00:13;;;;;;;0.40;0.20;;;;;;;22.29;59.28;100491.75;5033959;28;20458;-53
2022/07/01 11:02:40;;;;;;;0.40;0.20;;;;;;;22.09;60.77;100485.97;5034302;28;20891;-53
2022/07/01 11:05:12;;;;;;;0.40;0.20;;;;;;;22.39;60.12;100498.22;5034124;28;20478;-52
2022/07/01 11:07:47;;;;;;;0.40;0.20;;;;;;;22.21;60.44;100489.63;5034304;28;20452;-53
2022/07/01 11:10:16;;;;;;;0.40;0.20;;;;;;;22.52;58.46;100488.19;5033973;28;20866;-53
2022/07/01 11:12:48;;;;;;;0.40;0.20;;;;;;;22.09;59.24;100493.22;5034131;28;20528;-53
2022/07/01 11:15:15;;;;;;;0.40;0.20;;;;;;;21.86;59.97;100489.44;5021597;28;20458;-53
2022/07/01 11:17:44;;;;;;;0.40;0.20;;;;;;;22.18;59.02;100490.69;5033949;28;20482;-53
2022/07/01 11:20:11;;;;;;;0.40;0.20;;;;;;;22.72;57.46;100494.81;5034022;28;21028;-53
2022/07/01 11:22:38;;;;;;;0.40;0.20;;;;;;;22.92;57.15;100501.47;5033877;28;20941;-53
2022/07/01 11:25:07;;;;;;;0.40;0.20;;;;;;;23.20;57.37;100495.66;5021897;28;20463;-53
2022/07/01 11:27:34;;;;;;;0.40;0.20;;;;;;;23.02;58.21;100491.63;5034020;28;20454;-54
2022/07/01 11:30:04;;;;;;;0.40;0.20;;;;;;;23.51;55.92;100488.66;5033837;28;20487;-54
2022/07/01 11:32:34;;;;;;;0.40;0.20;;;;;;;23.14;55.26;100487.97;5033618;28;20892;-53
2022/07/01 11:35:03;;;;;;;0.40;0.20;;;;;;;22.97;54.24;100481.16;5033673;28;20478;-54
2022/07/01 11:40:18;;;;;;;0.40;0.20;;;;;;;22.83;56.67;100478.63;5012619;28;20451;-53